createdAt,value
2019-03-06T00:00:18.389Z,4.90
2019-03-06T00:05:14.504Z,6.83
2019-03-06T00:10:23.324Z,5.50
2019-03-06T00:15:19.334Z,7.37
2019-03-06T00:20:19.302Z,5.80
2019-03-06T00:25:15.429Z,9.17
2019-03-06T00:30:15.901Z,6.57
2019-03-06T00:35:20.792Z,5.80
2019-03-06T00:40:18.801Z,7.60
2019-03-06T00:45:14.828Z,6.97
2019-03-06T00:50:11.843Z,5.90
2019-03-06T00:55:09.881Z,8.83
2019-03-06T01:00:12.379Z,5.03
2019-03-06T01:05:09.511Z,8.30
2019-03-06T01:10:13.249Z,12.23
2019-03-06T01:15:10.161Z,8.33
2019-03-06T01:20:17.282Z,6.40
2019-03-06T01:25:15.310Z,8.30
2019-03-06T01:30:15.036Z,6.30
2019-03-06T01:35:18.619Z,8.90
2019-03-06T01:40:19.188Z,7.00
2019-03-06T01:45:15.185Z,6.40
2019-03-06T01:50:11.970Z,7.60
2019-03-06T01:55:10.697Z,9.80
2019-03-06T02:00:10.437Z,9.70
2019-03-06T02:05:09.251Z,5.60
2019-03-06T02:10:08.323Z,11.33
2019-03-06T02:15:08.040Z,5.90
2019-03-06T02:20:11.681Z,6.20
2019-03-06T02:25:07.612Z,10.30
2019-03-06T02:30:12.944Z,5.33
2019-03-06T02:35:08.996Z,5.10
2019-03-06T02:40:07.816Z,6.90
2019-03-06T02:45:10.291Z,5.23
2019-03-06T02:50:10.202Z,5.40
2019-03-06T02:55:08.529Z,7.27
2019-03-06T03:00:13.179Z,10.30
2019-03-06T03:05:14.197Z,6.83
2019-03-06T03:10:10.405Z,9.47
2019-03-06T03:15:08.221Z,5.73
2019-03-06T03:20:10.840Z,17.30
2019-03-06T03:25:06.951Z,10.10
2019-03-06T03:30:09.309Z,7.23
2019-03-06T03:35:05.339Z,4.03
2019-03-06T03:40:01.754Z,3.40
2019-03-06T03:44:57.861Z,5.57
2019-03-06T03:49:55.143Z,3.57
2019-03-06T03:54:51.236Z,5.40
2019-03-06T03:59:47.154Z,20.30
2019-03-06T04:04:43.064Z,12.87
2019-03-06T04:09:39.004Z,5.00
2019-03-06T04:14:34.912Z,3.37
2019-03-06T04:19:30.834Z,11.40
2019-03-06T04:24:26.756Z,6.77
2019-03-06T04:29:22.741Z,5.23
2019-03-06T04:34:18.665Z,7.73
2019-03-06T04:39:14.588Z,6.00
2019-03-06T04:44:10.498Z,11.53
2019-03-06T04:49:06.419Z,12.17
2019-03-06T04:54:02.636Z,9.47
2019-03-06T04:59:01.388Z,8.63
2019-03-06T05:03:57.394Z,14.00
2019-03-06T05:08:53.329Z,7.93
2019-03-06T05:13:49.239Z,13.67
2019-03-06T05:18:47.060Z,10.67
2019-03-06T05:23:42.966Z,17.47
2019-03-06T05:28:38.888Z,11.27
2019-03-06T05:33:35.098Z,15.07
2019-03-06T05:38:43.846Z,21.30
2019-03-06T05:43:39.762Z,16.40
2019-03-06T05:48:35.679Z,19.60
2019-03-06T05:53:31.581Z,15.20
2019-03-06T05:58:27.491Z,19.60
2019-03-06T06:03:23.399Z,19.83
2019-03-06T06:08:19.315Z,22.60
2019-03-06T06:13:15.222Z,17.40
2019-03-06T06:18:11.107Z,15.00
2019-03-06T06:23:25.448Z,17.20
2019-03-06T06:28:21.354Z,21.00
2019-03-06T06:33:17.314Z,16.83
2019-03-06T06:38:13.267Z,20.17
2019-03-06T06:43:09.172Z,22.90
2019-03-06T06:48:13.383Z,20.93
2019-03-06T06:53:31.199Z,21.23
2019-03-06T06:58:40.278Z,27.07
2019-03-06T07:04:14.274Z,27.83
2019-03-06T07:09:14.909Z,36.50
2019-03-06T07:14:15.501Z,28.17
2019-03-06T07:19:15.827Z,29.47
2019-03-06T07:24:17.339Z,27.63
2019-03-06T07:29:15.137Z,29.50
2019-03-06T07:34:13.055Z,30.23
2019-03-06T07:39:13.931Z,28.33
2019-03-06T07:44:30.490Z,24.60
2019-03-06T07:49:44.817Z,31.67
2019-03-06T07:54:36.902Z,27.13
2019-03-06T07:59:32.789Z,28.30
2019-03-06T08:04:28.816Z,27.10
2019-03-06T08:09:24.832Z,26.73
2019-03-06T08:14:22.663Z,25.90
2019-03-06T08:24:37.129Z,25.97
2019-03-06T08:29:33.058Z,22.30
2019-03-06T08:34:29.005Z,24.97
2019-03-06T08:39:24.953Z,22.70
2019-03-06T08:44:20.870Z,19.67
2019-03-06T08:49:30.434Z,19.40
2019-03-06T08:54:37.332Z,17.87
2019-03-06T08:59:50.811Z,19.60
2019-03-06T09:04:48.745Z,17.40
2019-03-06T09:09:46.584Z,14.83
2019-03-06T09:14:47.357Z,17.60
2019-03-06T09:25:01.773Z,15.07
2019-03-06T09:30:15.779Z,18.93
2019-03-06T09:35:26.768Z,13.40
2019-03-06T09:40:27.432Z,15.23
2019-03-06T09:45:32.961Z,17.20
2019-03-06T09:50:48.684Z,17.40
2019-03-06T09:55:51.437Z,11.77
2019-03-06T10:01:05.563Z,11.37
2019-03-06T10:06:16.301Z,12.90
2019-03-06T10:16:23.215Z,10.70
2019-03-06T10:21:19.342Z,6.97
2019-03-06T10:26:15.354Z,7.37
2019-03-06T10:31:11.282Z,6.53
2019-03-06T10:36:07.199Z,10.83
2019-03-06T10:41:03.215Z,8.20
2019-03-06T10:45:59.221Z,6.67
2019-03-06T10:50:55.862Z,4.73
2019-03-06T10:55:52.047Z,4.87
2019-03-06T11:00:52.541Z,6.80
2019-03-06T11:05:48.593Z,10.97
2019-03-06T11:10:44.704Z,4.10
2019-03-06T11:15:40.814Z,3.80
2019-03-06T11:20:37.554Z,4.27
2019-03-06T11:25:34.226Z,4.30
2019-03-06T11:30:48.959Z,5.90
2019-03-06T11:35:45.574Z,4.17
2019-03-06T11:40:41.855Z,3.33
2019-03-06T11:45:38.903Z,7.17
2019-03-06T11:50:40.947Z,3.03
2019-03-06T11:55:34.054Z,2.93
2019-03-06T12:00:31.974Z,3.20
2019-03-06T12:05:28.098Z,3.93
2019-03-06T12:10:24.903Z,1.93
2019-03-06T12:15:21.040Z,2.30
2019-03-06T12:20:25.531Z,2.50
2019-03-06T12:25:21.664Z,2.10
2019-03-06T12:30:17.983Z,3.37
2019-03-06T12:35:15.497Z,2.97
2019-03-06T12:40:14.924Z,1.53
2019-03-06T12:45:15.762Z,4.47
2019-03-06T12:50:15.963Z,3.90
2019-03-06T12:55:12.081Z,8.33
2019-03-06T13:00:16.156Z,1.97
2019-03-06T13:05:12.253Z,3.90
2019-03-06T13:10:10.668Z,2.50
2019-03-06T13:15:10.223Z,3.20
2019-03-06T13:20:09.637Z,5.07
2019-03-06T13:25:08.985Z,3.30
2019-03-06T13:30:12.274Z,4.57
2019-03-06T13:35:10.075Z,8.00
2019-03-06T13:40:06.693Z,3.43
2019-03-06T13:45:07.673Z,2.83
2019-03-06T13:50:07.559Z,3.33
2019-03-06T13:55:10.006Z,6.27
2019-03-06T14:00:10.151Z,4.03
2019-03-06T14:05:07.366Z,2.20
2019-03-06T14:10:06.263Z,3.77
2019-03-06T14:15:04.587Z,4.47
2019-03-06T14:20:01.092Z,3.53
2019-03-06T14:24:57.007Z,7.73
2019-03-06T14:29:52.935Z,14.63
2019-03-06T14:34:49.663Z,3.50
2019-03-06T14:39:45.757Z,4.90
2019-03-06T14:44:41.763Z,6.13
2019-03-06T14:49:37.669Z,2.60
2019-03-06T14:54:33.577Z,2.97
2019-03-06T14:59:29.585Z,2.90
2019-03-06T15:04:25.518Z,2.73
2019-03-06T15:09:23.413Z,5.33
2019-03-06T15:14:19.328Z,7.60
2019-03-06T15:19:15.259Z,3.70
2019-03-06T15:24:11.165Z,3.40
2019-03-06T15:29:07.114Z,4.03
2019-03-06T15:34:03.426Z,4.80
2019-03-06T15:39:02.868Z,1.77
2019-03-06T15:44:00.145Z,2.20
2019-03-06T15:48:56.139Z,2.87
2019-03-06T15:53:52.067Z,4.03
2019-03-06T15:58:47.971Z,2.10
2019-03-06T16:03:43.987Z,1.50
2019-03-06T16:08:40.811Z,4.93
2019-03-06T16:13:36.787Z,3.50
2019-03-06T16:18:32.718Z,2.97
2019-03-06T16:23:28.720Z,1.67
2019-03-06T16:28:24.698Z,5.23
2019-03-06T16:33:22.597Z,3.37
2019-03-06T16:38:18.718Z,3.60
2019-03-06T16:43:14.647Z,3.47
2019-03-06T16:48:10.559Z,1.80
2019-03-06T16:53:10.575Z,2.13
2019-03-06T16:58:06.760Z,2.57
2019-03-06T17:03:06.459Z,2.00
2019-03-06T17:08:02.879Z,5.20
2019-03-06T17:13:02.032Z,3.30
2019-03-06T17:17:59.667Z,1.90
2019-03-06T17:22:56.159Z,1.63
2019-03-06T17:27:53.991Z,2.20
2019-03-06T17:33:24.821Z,4.80
2019-03-06T17:38:22.859Z,7.03
2019-03-06T17:43:19.594Z,3.07
2019-03-06T17:48:15.609Z,3.87
2019-03-06T17:53:12.897Z,2.50
2019-03-06T17:58:09.881Z,2.40
2019-03-06T18:03:08.147Z,7.60
2019-03-06T18:08:04.161Z,4.20
2019-03-06T18:13:00.186Z,6.13
2019-03-06T18:17:57.731Z,6.43
2019-03-06T18:22:55.173Z,5.17
2019-03-06T18:27:51.357Z,2.60
2019-03-06T18:32:47.370Z,3.60
2019-03-06T18:37:43.854Z,5.33
2019-03-06T18:42:39.861Z,4.20
2019-03-06T18:47:35.767Z,3.07
2019-03-06T18:52:31.683Z,2.10
2019-03-06T18:57:27.622Z,2.53
2019-03-06T19:02:23.538Z,4.60
2019-03-06T19:07:19.843Z,2.20
2019-03-06T19:12:15.758Z,10.23
2019-03-06T19:17:11.678Z,7.57
2019-03-06T19:22:07.762Z,3.47
2019-03-06T19:27:03.771Z,5.13
2019-03-06T19:31:59.740Z,1.97
2019-03-06T19:36:55.667Z,3.13
2019-03-06T19:41:51.627Z,4.83
2019-03-06T19:46:47.542Z,2.70
2019-03-06T19:51:51.324Z,5.47
2019-03-06T19:56:43.150Z,5.00
2019-03-06T20:01:39.115Z,2.97
2019-03-06T20:06:35.450Z,2.80
2019-03-06T20:11:31.406Z,4.10
2019-03-06T20:16:27.996Z,10.53
2019-03-06T20:21:27.925Z,4.50
2019-03-06T20:26:24.230Z,2.77
2019-03-06T20:31:20.782Z,4.10
2019-03-06T20:36:16.671Z,2.50
2019-03-06T20:41:12.774Z,1.93
2019-03-06T20:46:08.883Z,2.60
2019-03-06T20:51:05.143Z,6.53
2019-03-06T20:56:01.080Z,4.20
2019-03-06T21:00:58.301Z,4.97
2019-03-06T21:05:54.417Z,6.30
2019-03-06T21:10:50.326Z,3.57
2019-03-06T21:15:46.234Z,2.73
2019-03-06T21:20:43.491Z,5.50
2019-03-06T21:25:39.548Z,6.43
2019-03-06T21:30:42.832Z,4.73
2019-03-06T21:35:38.941Z,4.80
2019-03-06T21:40:34.867Z,4.73
2019-03-06T21:45:30.779Z,2.60
2019-03-06T21:50:26.810Z,4.70
2019-03-06T21:55:22.718Z,5.60
2019-03-06T22:00:20.139Z,4.60
2019-03-06T22:05:16.326Z,4.50
2019-03-06T22:10:16.312Z,5.13
2019-03-06T22:15:19.767Z,3.13
2019-03-06T22:20:21.589Z,5.47
2019-03-06T22:25:18.447Z,4.83
2019-03-06T22:30:18.886Z,4.93
2019-03-06T22:35:14.996Z,3.30
2019-03-06T22:40:15.174Z,3.77
2019-03-06T22:45:12.986Z,3.23
2019-03-06T22:50:15.798Z,3.10
2019-03-06T22:55:14.078Z,7.43
2019-03-06T23:00:29.234Z,7.73
2019-03-06T23:05:26.760Z,5.20
2019-03-06T23:10:23.091Z,4.40
2019-03-06T23:15:19.003Z,5.07
2019-03-06T23:20:15.773Z,5.33
2019-03-06T23:25:11.882Z,8.70
2019-03-06T23:30:10.207Z,7.63
2019-03-06T23:35:06.519Z,5.03
2019-03-06T23:40:04.826Z,5.70
2019-03-06T23:45:00.851Z,4.30
2019-03-06T23:49:57.512Z,2.80
2019-03-06T23:54:53.535Z,4.47
2019-03-06T23:59:49.497Z,12.40
